Terminal Aerodrome Forecast
Issued by NWS

Home | Current Version | Previous Version | Text Only | Print | Product List | Glossary On
Versions: 1 2 3 4 5 6 7 8 9 10 11 12 13 14 15 16 17 18 19
000
FTAK31 PAFA 170734 AAA
TAFAOR
TAF AMD
PAOR 170734Z 1708/1806 32011G20KT 5SM -SN BLSN SCT020 BKN050
      TEMPO 1708/1711 3SM -SN BLSN
     FM171100 32005KT P6SM SCT025 BKN060=

USA.gov is the U.S. government's official web portal to all federal, state and local government web resources and services.